Time;durP1;ratioP1;P1;durP2;ratioP2;P2;SDS_P1;SDS_P2;PMS_P1;PMS_P2;Temp;Humidity;BMP_temperature;BMP_pressure;BME280_temperature;BME280_humidity;BME280_pressure;Samples;Min_cycle;Max_cycle;Signal;HPM_P1;HPM_P2
2022/09/08 00:00:37;;;;;;;;;;;16.30;99.90;;;;;;5094517;28;20315;-76
2022/09/08 00:03:04;;;;;;;;;;;16.30;99.90;;;;;;5092973;28;19914;-76
2022/09/08 00:05:33;;;;;;;;;;;16.30;99.90;;;;;;5093096;28;19912;-75
2022/09/08 00:07:59;;;;;;;;;;;16.30;99.90;;;;;;5094203;28;20045;-76
2022/09/08 00:10:25;;;;;;;;;;;16.20;99.90;;;;;;5094193;28;19908;-76
2022/09/08 00:12:51;;;;;;;;;;;16.20;99.90;;;;;;5093972;28;20254;-75
2022/09/08 00:15:17;;;;;;;;;;;16.20;99.90;;;;;;5092938;28;19915;-76
2022/09/08 00:17:42;;;;;;;;;;;16.30;99.90;;;;;;5094073;28;19915;-76
2022/09/08 00:20:08;;;;;;;;;;;16.30;99.90;;;;;;5093650;28;19911;-76
2022/09/08 00:22:35;;;;;;;;;;;16.30;99.90;;;;;;5094090;28;19961;-76
2022/09/08 00:25:00;;;;;;;;;;;16.30;99.90;;;;;;5093622;28;19997;-76
2022/09/08 00:27:26;;;;;;;;;;;16.30;99.90;;;;;;5093637;28;19989;-75
2022/09/08 00:29:52;;;;;;;;;;;16.30;99.90;;;;;;5093418;28;19922;-76
2022/09/08 00:32:19;;;;;;;;;;;16.30;99.90;;;;;;5094174;28;19908;-76
2022/09/08 00:34:44;;;;;;;;;;;16.30;99.90;;;;;;5093795;28;19908;-76
2022/09/08 00:37:10;;;;;;;;;;;16.30;99.90;;;;;;5093222;28;19912;-76
2022/09/08 00:39:36;;;;;;;;;;;16.30;99.90;;;;;;5093834;28;19919;-75
2022/09/08 00:42:01;;;;;;;;;;;16.30;99.90;;;;;;5092941;28;19924;-76
2022/09/08 00:44:35;;;;;;;;;;;16.30;99.90;;;;;;5093745;28;19962;-74
2022/09/08 00:47:01;;;;;;;;;;;16.30;99.90;;;;;;5093040;28;19912;-74
2022/09/08 00:49:28;;;;;;;;;;;16.40;99.90;;;;;;5093678;28;19943;-75
2022/09/08 00:51:55;;;;;;;;;;;16.40;99.90;;;;;;5092989;28;19912;-75
2022/09/08 00:54:20;;;;;;;;;;;16.30;99.90;;;;;;5093647;28;19962;-75
2022/09/08 00:56:47;;;;;;;;;;;16.40;99.90;;;;;;5092326;28;19908;-75
2022/09/08 00:59:15;;;;;;;;;;;16.30;99.90;;;;;;5108152;28;20388;-77
2022/09/08 01:01:41;;;;;;;;;;;16.30;99.90;;;;;;5091927;28;19908;-77
2022/09/08 01:04:07;;;;;;;;;;;16.30;99.90;;;;;;5092399;28;20280;-76
2022/09/08 01:14:52;;;;;;;;;;;16.40;99.90;;;;;;5091874;28;19954;-75
2022/09/08 01:17:18;;;;;;;;;;;16.30;99.90;;;;;;5091823;28;19939;-75
2022/09/08 01:19:47;;;;;;;;;;;16.30;99.90;;;;;;5093561;28;19912;-74
2022/09/08 01:22:13;;;;;;;;;;;16.30;99.90;;;;;;5091166;28;19915;-75
2022/09/08 01:24:44;;;;;;;;;;;16.30;99.90;;;;;;5092999;28;19912;-76
2022/09/08 01:27:10;;;;;;;;;;;16.20;99.90;;;;;;5092653;28;19919;-76
2022/09/08 01:29:36;;;;;;;;;;;16.20;99.90;;;;;;5093142;28;19912;-74
2022/09/08 01:32:03;;;;;;;;;;;16.20;99.90;;;;;;5092646;28;19962;-74
2022/09/08 01:34:36;;;;;;;;;;;16.20;99.90;;;;;;5093154;28;19916;-74
2022/09/08 01:37:01;;;;;;;;;;;16.10;99.90;;;;;;5092484;28;19998;-74
2022/09/08 01:39:27;;;;;;;;;;;16.10;99.90;;;;;;5093121;28;20353;-76
2022/09/08 01:41:52;;;;;;;;;;;16.10;99.90;;;;;;5092996;28;19981;-75
2022/09/08 01:44:18;;;;;;;;;;;16.10;99.90;;;;;;5092370;28;20010;-76
2022/09/08 01:46:43;;;;;;;;;;;16.00;99.90;;;;;;5091975;28;19916;-75
2022/09/08 01:49:09;;;;;;;;;;;16.00;99.90;;;;;;5090840;28;20027;-75
2022/09/08 01:51:35;;;;;;;;;;;16.10;99.90;;;;;;5093242;28;19909;-75
2022/09/08 01:54:00;;;;;;;;;;;16.10;99.90;;;;;;5092303;28;19968;-75
2022/09/08 01:56:26;;;;;;;;;;;16.00;99.90;;;;;;5092678;28;19947;-76
2022/09/08 01:58:51;;;;;;;;;;;16.10;99.90;;;;;;5091508;28;20319;-76
2022/09/08 02:01:17;;;;;;;;;;;16.10;99.90;;;;;;5092355;28;19938;-76
2022/09/08 02:03:43;;;;;;;;;;;16.10;99.90;;;;;;5092989;28;19908;-76
2022/09/08 02:06:08;;;;;;;;;;;16.10;99.90;;;;;;5092413;28;19965;-76
2022/09/08 02:08:34;;;;;;;;;;;16.10;99.90;;;;;;5092706;28;19953;-77
2022/09/08 02:10:59;;;;;;;;;;;16.10;99.90;;;;;;5091020;28;19908;-76
2022/09/08 02:13:25;;;;;;;;;;;16.10;99.90;;;;;;5093732;28;20519;-79
2022/09/08 02:15:56;;;;;;;;;;;16.10;99.90;;;;;;5093462;28;20003;-79
2022/09/08 02:18:22;;;;;;;;;;;16.00;99.90;;;;;;5093321;28;19916;-79
2022/09/08 02:20:47;;;;;;;;;;;16.00;99.90;;;;;;5092405;28;20273;-77
2022/09/08 02:23:13;;;;;;;;;;;16.00;99.90;;;;;;5092154;28;19914;-77
2022/09/08 02:25:38;;;;;;;;;;;15.90;99.90;;;;;;5091797;28;19931;-77
2022/09/08 02:28:04;;;;;;;;;;;16.00;99.90;;;;;;5096194;28;19912;-77
2022/09/08 02:30:30;;;;;;;;;;;15.90;99.90;;;;;;5095854;28;20315;-76
2022/09/08 02:32:55;;;;;;;;;;;16.00;99.90;;;;;;5096373;28;19926;-77
2022/09/08 02:35:21;;;;;;;;;;;15.90;99.90;;;;;;5096009;28;19974;-76
2022/09/08 02:37:46;;;;;;;;;;;16.00;99.90;;;;;;5096168;28;20348;-76
2022/09/08 02:40:12;;;;;;;;;;;16.00;99.90;;;;;;5095188;28;19908;-77
2022/09/08 02:42:39;;;;;;;;;;;16.00;99.90;;;;;;5095967;28;19931;-76
2022/09/08 02:45:06;;;;;;;;;;;16.00;99.90;;;;;;5095338;28;20367;-76
2022/09/08 02:47:32;;;;;;;;;;;16.00;99.90;;;;;;5095876;28;19912;-76
2022/09/08 02:49:58;;;;;;;;;;;16.00;99.90;;;;;;5111413;28;20353;-76
2022/09/08 02:52:23;;;;;;;;;;;16.10;99.90;;;;;;5095151;28;19916;-77
2022/09/08 02:54:49;;;;;;;;;;;16.00;99.90;;;;;;5095502;28;20430;-77
2022/09/08 02:57:15;;;;;;;;;;;16.00;99.90;;;;;;5094954;28;19962;-76
2022/09/08 02:59:40;;;;;;;;;;;16.00;99.90;;;;;;5095546;28;20346;-76
2022/09/08 03:02:06;;;;;;;;;;;16.00;99.90;;;;;;5093779;28;20020;-76
2022/09/08 03:04:31;;;;;;;;;;;16.00;99.90;;;;;;5095793;28;19931;-76
2022/09/08 03:06:57;;;;;;;;;;;16.00;99.90;;;;;;5095565;28;20391;-76
2022/09/08 03:09:22;;;;;;;;;;;16.00;99.90;;;;;;5095007;28;19969;-76
2022/09/08 03:11:48;;;;;;;;;;;16.10;99.90;;;;;;5095244;28;19914;-76
2022/09/08 03:14:13;;;;;;;;;;;16.10;99.90;;;;;;5093343;28;20426;-76
2022/09/08 03:16:39;;;;;;;;;;;16.10;99.90;;;;;;5094097;28;19908;-76
2022/09/08 03:19:06;;;;;;;;;;;16.10;99.90;;;;;;5093674;28;19908;-76
2022/09/08 03:21:31;;;;;;;;;;;16.10;99.90;;;;;;5095383;28;19912;-76
2022/09/08 03:23:57;;;;;;;;;;;16.10;99.90;;;;;;5095250;28;19994;-77
2022/09/08 03:26:24;;;;;;;;;;;16.10;99.90;;;;;;5094274;28;19916;-77
2022/09/08 03:28:49;;;;;;;;;;;16.10;99.90;;;;;;5094939;28;20002;-76
2022/09/08 03:31:16;;;;;;;;;;;16.10;99.90;;;;;;5094527;28;20116;-76
2022/09/08 03:33:42;;;;;;;;;;;16.10;99.90;;;;;;5095160;28;19917;-74
2022/09/08 03:36:09;;;;;;;;;;;16.00;99.90;;;;;;5094693;28;19908;-76
2022/09/08 03:38:35;;;;;;;;;;;16.00;99.90;;;;;;5094080;28;19930;-75
2022/09/08 03:41:04;;;;;;;;;;;16.10;99.90;;;;;;5094472;28;19924;-75
2022/09/08 03:43:30;;;;;;;;;;;16.00;99.90;;;;;;5094827;28;20383;-75
2022/09/08 03:45:56;;;;;;;;;;;16.00;99.90;;;;;;5094791;28;20010;-76
2022/09/08 03:48:21;;;;;;;;;;;16.00;99.90;;;;;;5094393;28;19918;-75
2022/09/08 03:50:47;;;;;;;;;;;16.00;99.90;;;;;;5094683;28;20266;-75
2022/09/08 03:53:13;;;;;;;;;;;15.90;99.90;;;;;;5094119;28;19915;-75
2022/09/08 03:55:39;;;;;;;;;;;15.90;99.90;;;;;;5094464;28;19915;-76
2022/09/08 03:58:05;;;;;;;;;;;15.90;99.90;;;;;;5093990;28;19909;-75
2022/09/08 04:00:31;;;;;;;;;;;15.90;99.90;;;;;;5094707;28;20432;-74
2022/09/08 04:02:56;;;;;;;;;;;15.90;99.90;;;;;;5094611;28;19908;-75
2022/09/08 04:05:22;;;;;;;;;;;15.90;99.90;;;;;;5093945;28;20777;-75
2022/09/08 04:07:48;;;;;;;;;;;15.90;99.90;;;;;;5094353;28;20388;-75
2022/09/08 04:10:15;;;;;;;;;;;15.90;99.90;;;;;;5093947;28;19908;-75
2022/09/08 04:12:41;;;;;;;;;;;16.00;99.90;;;;;;5094227;28;20418;-76
2022/09/08 04:15:07;;;;;;;;;;;15.90;99.90;;;;;;5092167;28;19916;-75
2022/09/08 04:17:33;;;;;;;;;;;15.90;99.90;;;;;;5094195;28;20365;-74
2022/09/08 04:19:58;;;;;;;;;;;16.00;99.90;;;;;;5094206;28;20003;-75
2022/09/08 04:22:24;;;;;;;;;;;15.90;99.90;;;;;;5093546;28;19912;-75
2022/09/08 04:24:50;;;;;;;;;;;16.00;99.90;;;;;;5094010;28;20418;-75
2022/09/08 04:27:16;;;;;;;;;;;16.00;99.90;;;;;;5093541;28;20374;-75
2022/09/08 04:29:42;;;;;;;;;;;16.00;99.90;;;;;;5093535;28;20357;-75
2022/09/08 04:32:07;;;;;;;;;;;16.00;99.90;;;;;;5093017;28;19915;-75
2022/09/08 04:34:36;;;;;;;;;;;16.00;99.90;;;;;;5094042;28;20365;-75
2022/09/08 04:37:02;;;;;;;;;;;16.00;99.90;;;;;;5093710;28;19908;-75
2022/09/08 04:39:28;;;;;;;;;;;16.00;99.90;;;;;;5093198;28;19977;-75
2022/09/08 04:41:54;;;;;;;;;;;16.10;99.90;;;;;;5093914;28;20423;-75
2022/09/08 04:44:20;;;;;;;;;;;16.00;99.90;;;;;;5092938;28;19935;-75
2022/09/08 04:46:45;;;;;;;;;;;16.00;99.90;;;;;;5093494;28;20365;-75
2022/09/08 04:49:11;;;;;;;;;;;16.00;99.90;;;;;;5092881;28;19915;-74
2022/09/08 04:51:37;;;;;;;;;;;16.00;99.90;;;;;;5093383;28;20006;-75
2022/09/08 04:54:03;;;;;;;;;;;16.00;99.90;;;;;;5093695;28;19951;-83
2022/09/08 04:56:29;;;;;;;;;;;15.90;99.90;;;;;;5092893;28;19908;-81
2022/09/08 04:58:55;;;;;;;;;;;15.80;99.90;;;;;;5092320;28;19953;-78
2022/09/08 05:01:28;;;;;;;;;;;15.70;99.90;;;;;;5093185;28;19999;-76
2022/09/08 05:03:55;;;;;;;;;;;15.60;99.90;;;;;;5093491;28;19908;-74
2022/09/08 05:06:22;;;;;;;;;;;15.50;99.90;;;;;;5092890;28;20101;-75
2022/09/08 05:08:48;;;;;;;;;;;15.50;99.90;;;;;;5093504;28;20391;-75
2022/09/08 05:11:14;;;;;;;;;;;15.50;99.90;;;;;;5092489;28;19908;-75
2022/09/08 05:13:40;;;;;;;;;;;15.50;99.90;;;;;;5093143;28;19908;-75
2022/09/08 05:16:10;;;;;;;;;;;15.50;99.90;;;;;;5092798;28;19912;-76
2022/09/08 05:18:36;;;;;;;;;;;15.50;99.90;;;;;;5092902;28;20376;-75
2022/09/08 05:21:02;;;;;;;;;;;15.50;99.90;;;;;;5126083;27;19916;-75
2022/09/08 05:23:27;;;;;;;;;;;15.40;99.90;;;;;;5092429;28;19913;-75
2022/09/08 05:25:55;;;;;;;;;;;15.50;99.90;;;;;;5092788;28;19912;-75
2022/09/08 05:28:20;;;;;;;;;;;15.50;99.90;;;;;;5092438;28;19965;-76
2022/09/08 05:30:46;;;;;;;;;;;15.40;99.90;;;;;;5125946;28;19908;-76
2022/09/08 05:33:12;;;;;;;;;;;15.40;99.90;;;;;;5092182;28;19974;-74
2022/09/08 05:35:37;;;;;;;;;;;15.40;99.90;;;;;;5092792;28;20258;-75
2022/09/08 05:38:03;;;;;;;;;;;15.40;99.90;;;;;;5092788;28;19908;-75
2022/09/08 05:40:28;;;;;;;;;;;15.40;99.90;;;;;;5091949;28;19969;-75
2022/09/08 05:42:54;;;;;;;;;;;15.40;99.90;;;;;;5093144;28;19931;-75
2022/09/08 05:45:19;;;;;;;;;;;15.50;99.90;;;;;;5092289;28;20392;-76
2022/09/08 05:47:45;;;;;;;;;;;15.40;99.90;;;;;;5091616;28;19916;-75
2022/09/08 05:50:11;;;;;;;;;;;15.40;99.90;;;;;;5092490;28;19908;-76
2022/09/08 05:52:36;;;;;;;;;;;15.40;99.90;;;;;;5092753;28;19915;-75
2022/09/08 05:55:02;;;;;;;;;;;15.50;99.90;;;;;;5093371;28;19909;-75
2022/09/08 05:57:28;;;;;;;;;;;15.40;99.90;;;;;;5092308;28;19915;-76
2022/09/08 05:59:53;;;;;;;;;;;15.50;99.90;;;;;;5093076;28;19915;-75
2022/09/08 06:02:19;;;;;;;;;;;15.50;99.90;;;;;;5095767;28;19908;-74
2022/09/08 06:04:44;;;;;;;;;;;15.50;99.90;;;;;;5095295;28;20042;-76
2022/09/08 06:07:10;;;;;;;;;;;15.60;99.90;;;;;;5095676;28;19961;-76
2022/09/08 06:09:36;;;;;;;;;;;15.60;99.90;;;;;;5095871;28;19912;-75
2022/09/08 06:12:02;;;;;;;;;;;15.60;99.90;;;;;;5096293;28;19908;-76
2022/09/08 06:14:28;;;;;;;;;;;15.60;99.90;;;;;;5095572;28;19962;-76
2022/09/08 06:16:53;;;;;;;;;;;15.60;99.90;;;;;;5096061;28;19908;-76
2022/09/08 06:19:19;;;;;;;;;;;15.60;99.90;;;;;;5095558;28;20334;-75
2022/09/08 06:21:45;;;;;;;;;;;15.70;99.90;;;;;;5096428;28;19995;-76
2022/09/08 06:24:13;;;;;;;;;;;15.60;99.90;;;;;;5096212;28;19913;-75
2022/09/08 06:26:58;;;;;;;;;;;15.60;99.90;;;;;;5096021;28;19912;-76
2022/09/08 06:29:24;;;;;;;;;;;15.70;99.90;;;;;;5095237;28;20357;-76
2022/09/08 06:31:55;;;;;;;;;;;15.70;99.90;;;;;;5095904;28;19916;-76
2022/09/08 06:34:23;;;;;;;;;;;15.60;99.90;;;;;;5095240;28;19973;-75
2022/09/08 06:36:50;;;;;;;;;;;15.70;99.90;;;;;;5094666;28;19908;-75
2022/09/08 06:39:21;;;;;;;;;;;15.70;99.90;;;;;;5095441;28;19944;-76
2022/09/08 06:41:49;;;;;;;;;;;15.70;99.90;;;;;;5095714;28;19924;-75
2022/09/08 06:44:17;;;;;;;;;;;15.70;99.90;;;;;;5095246;28;20275;-75
2022/09/08 06:46:43;;;;;;;;;;;15.70;99.90;;;;;;5095722;28;19916;-76
2022/09/08 06:49:09;;;;;;;;;;;15.60;99.90;;;;;;5095855;28;19915;-76
2022/09/08 06:51:50;;;;;;;;;;;15.70;99.90;;;;;;5095475;28;20004;-76
2022/09/08 06:54:31;;;;;;;;;;;15.70;99.90;;;;;;5094850;28;19994;-75
2022/09/08 06:56:59;;;;;;;;;;;15.70;99.90;;;;;;5088676;28;19916;-77
2022/09/08 06:59:43;;;;;;;;;;;15.70;99.90;;;;;;5084750;28;19943;-77
2022/09/08 07:02:09;;;;;;;;;;;15.70;99.90;;;;;;5089237;28;20357;-77
2022/09/08 07:04:53;;;;;;;;;;;15.70;99.90;;;;;;5094257;28;19973;-76
2022/09/08 07:07:39;;;;;;;;;;;15.70;99.90;;;;;;5094932;28;19916;-76
2022/09/08 07:10:27;;;;;;;;;;;15.80;99.90;;;;;;5083780;28;19908;-76
2022/09/08 07:13:03;;;;;;;;;;;15.80;99.90;;;;;;5092175;28;19916;-75
2022/09/08 07:15:35;;;;;;;;;;;15.80;99.90;;;;;;5094941;28;19912;-75
2022/09/08 07:18:07;;;;;;;;;;;15.90;99.90;;;;;;5111060;28;19908;-76
2022/09/08 07:20:33;;;;;;;;;;;15.90;99.90;;;;;;5094705;28;19908;-76
2022/09/08 07:23:06;;;;;;;;;;;15.90;99.90;;;;;;5095630;28;19908;-76
2022/09/08 07:25:52;;;;;;;;;;;16.00;99.90;;;;;;5094339;28;20007;-76
2022/09/08 07:28:21;;;;;;;;;;;16.00;99.90;;;;;;5094796;28;19912;-75
2022/09/08 07:30:59;;;;;;;;;;;16.00;99.90;;;;;;5093806;28;19908;-76
2022/09/08 07:33:28;;;;;;;;;;;16.00;99.90;;;;;;5094450;28;20348;-76
2022/09/08 07:36:10;;;;;;;;;;;16.00;99.90;;;;;;5094958;28;19909;-75
2022/09/08 07:38:55;;;;;;;;;;;16.10;99.90;;;;;;5094432;28;19954;-75
2022/09/08 07:41:24;;;;;;;;;;;16.10;99.90;;;;;;5094452;28;19946;-75
2022/09/08 07:43:51;;;;;;;;;;;16.20;99.90;;;;;;5094793;28;19918;-75
2022/09/08 07:46:22;;;;;;;;;;;16.20;99.90;;;;;;5094510;28;19957;-75
2022/09/08 07:48:56;;;;;;;;;;;16.20;99.90;;;;;;5094588;28;19908;-75
2022/09/08 07:51:26;;;;;;;;;;;16.20;99.90;;;;;;5090615;28;19920;-76
2022/09/08 07:53:58;;;;;;;;;;;16.20;99.90;;;;;;5085769;28;19918;-76
2022/09/08 07:56:32;;;;;;;;;;;16.20;99.90;;;;;;5084327;28;19943;-77
2022/09/08 07:59:16;;;;;;;;;;;16.20;99.90;;;;;;5074104;28;19935;-76
2022/09/08 08:01:42;;;;;;;;;;;16.30;99.90;;;;;;5073851;28;20278;-76
2022/09/08 08:04:28;;;;;;;;;;;16.30;99.90;;;;;;5073911;28;19911;-76
2022/09/08 08:06:55;;;;;;;;;;;16.30;99.90;;;;;;5072795;28;19916;-76
2022/09/08 08:09:23;;;;;;;;;;;16.30;99.90;;;;;;5073636;28;19909;-76
2022/09/08 08:12:07;;;;;;;;;;;16.30;99.90;;;;;;5074114;28;19954;-75
2022/09/08 08:14:51;;;;;;;;;;;16.30;99.90;;;;;;5073320;28;20354;-74
2022/09/08 08:17:30;;;;;;;;;;;16.40;99.90;;;;;;5072748;28;19913;-74
2022/09/08 08:20:10;;;;;;;;;;;16.40;99.90;;;;;;5073549;28;19908;-75
2022/09/08 08:22:48;;;;;;;;;;;16.50;99.90;;;;;;5072956;28;19913;-75
2022/09/08 08:25:25;;;;;;;;;;;16.50;99.90;;;;;;5071969;28;19913;-75
2022/09/08 08:27:52;;;;;;;;;;;16.50;99.90;;;;;;5073808;28;20473;-76
2022/09/08 08:30:21;;;;;;;;;;;16.40;99.90;;;;;;5073480;28;19915;-76
2022/09/08 08:33:07;;;;;;;;;;;16.40;99.90;;;;;;5073141;28;19952;-75
2022/09/08 08:35:36;;;;;;;;;;;16.30;99.90;;;;;;5072340;28;20384;-75
2022/09/08 08:38:02;;;;;;;;;;;16.30;99.90;;;;;;5073527;28;20357;-75
2022/09/08 08:40:46;;;;;;;;;;;16.20;99.90;;;;;;5054909;28;20226;-74
2022/09/08 08:43:12;;;;;;;;;;;16.20;99.90;;;;;;5073369;28;20012;-77
2022/09/08 08:45:52;;;;;;;;;;;16.20;99.90;;;;;;5071506;28;20335;-79
2022/09/08 08:48:17;;;;;;;;;;;16.20;99.90;;;;;;5072657;28;19912;-77
2022/09/08 08:50:56;;;;;;;;;;;16.20;99.90;;;;;;5073018;28;20122;-76
2022/09/08 08:53:25;;;;;;;;;;;16.10;99.90;;;;;;5073338;28;19915;-76
2022/09/08 08:55:51;;;;;;;;;;;16.20;99.90;;;;;;5073486;28;19916;-75
2022/09/08 08:58:16;;;;;;;;;;;16.20;99.90;;;;;;5073228;28;19908;-77
2022/09/08 09:00:58;;;;;;;;;;;16.30;99.90;;;;;;5072525;28;19909;-76
2022/09/08 09:03:29;;;;;;;;;;;16.30;99.90;;;;;;5071706;28;20375;-75
2022/09/08 09:05:55;;;;;;;;;;;16.30;99.90;;;;;;5072299;28;20361;-76
2022/09/08 09:08:33;;;;;;;;;;;16.30;99.90;;;;;;5073397;28;19939;-75
2022/09/08 09:11:07;;;;;;;;;;;16.50;99.90;;;;;;5072938;28;19909;-75
2022/09/08 09:13:36;;;;;;;;;;;16.50;99.90;;;;;;5072200;28;19912;-75
2022/09/08 09:16:01;;;;;;;;;;;16.70;99.90;;;;;;5072789;28;20003;-75
2022/09/08 09:18:46;;;;;;;;;;;16.70;99.90;;;;;;5071210;28;20312;-75
2022/09/08 09:21:32;;;;;;;;;;;16.70;99.90;;;;;;5071725;28;19984;-75
2022/09/08 09:24:01;;;;;;;;;;;16.80;99.90;;;;;;5071279;28;19912;-75
2022/09/08 09:26:30;;;;;;;;;;;16.90;99.90;;;;;;5071401;28;19920;-75
2022/09/08 09:29:03;;;;;;;;;;;17.00;99.90;;;;;;5072990;28;19909;-75
2022/09/08 09:31:31;;;;;;;;;;;17.20;99.90;;;;;;5071079;28;20336;-75
2022/09/08 09:34:11;;;;;;;;;;;17.30;99.90;;;;;;5072852;28;19912;-75
2022/09/08 09:36:37;;;;;;;;;;;17.50;99.90;;;;;;5074413;28;19909;-75
2022/09/08 09:39:08;;;;;;;;;;;17.80;99.90;;;;;;5077405;28;20016;-74
2022/09/08 09:41:34;;;;;;;;;;;17.90;99.90;;;;;;5076091;28;19920;-74
2022/09/08 09:44:09;;;;;;;;;;;18.00;99.90;;;;;;5075818;28;19909;-75
2022/09/08 09:46:43;;;;;;;;;;;18.10;99.90;;;;;;5076755;28;19919;-75
2022/09/08 09:49:27;;;;;;;;;;;17.90;99.90;;;;;;5076540;28;19969;-75
2022/09/08 09:52:16;;;;;;;;;;;17.90;99.90;;;;;;5075877;28;19908;-75
2022/09/08 09:54:44;;;;;;;;;;;17.80;99.90;;;;;;5077124;28;19947;-75
2022/09/08 09:57:29;;;;;;;;;;;17.80;99.90;;;;;;5076760;28;19912;-75
2022/09/08 10:00:07;;;;;;;;;;;17.70;99.90;;;;;;5076517;28;19916;-75
2022/09/08 10:02:34;;;;;;;;;;;17.60;99.90;;;;;;5076059;28;19965;-75
2022/09/08 10:05:08;;;;;;;;;;;17.50;99.90;;;;;;5077948;28;20019;-76
2022/09/08 10:08:04;;;;;;;;;;;17.50;99.90;;;;;;5076525;28;19912;-76
2022/09/08 10:10:40;;;;;;;;;;;17.50;99.90;;;;;;5076121;28;19914;-75
2022/09/08 10:13:05;;;;;;;;;;;17.40;99.90;;;;;;5076714;28;19908;-75
2022/09/08 10:15:50;;;;;;;;;;;17.40;99.90;;;;;;5075628;28;20003;-75
2022/09/08 10:18:18;;;;;;;;;;;17.50;99.90;;;;;;5076018;28;19908;-75
2022/09/08 10:20:50;;;;;;;;;;;17.50;99.90;;;;;;5075533;28;19908;-75
2022/09/08 10:23:21;;;;;;;;;;;17.50;99.90;;;;;;5076196;28;20381;-75
2022/09/08 10:25:47;;;;;;;;;;;17.60;99.90;;;;;;5074208;28;20384;-75
2022/09/08 10:28:31;;;;;;;;;;;17.70;99.90;;;;;;5076138;28;19916;-76
2022/09/08 10:31:15;;;;;;;;;;;17.60;99.90;;;;;;5076522;28;19912;-76
2022/09/08 10:33:59;;;;;;;;;;;17.70;99.90;;;;;;5075376;28;19908;-76
2022/09/08 10:36:44;;;;;;;;;;;17.80;99.90;;;;;;5076465;28;19912;-75
2022/09/08 10:39:25;;;;;;;;;;;17.70;99.90;;;;;;5075903;28;19931;-75
2022/09/08 10:42:13;;;;;;;;;;;17.70;99.90;;;;;;5074125;28;20011;-74
2022/09/08 10:44:41;;;;;;;;;;;17.80;99.90;;;;;;5074700;28;20281;-75
2022/09/08 10:47:42;;;;;;;;;;;17.60;99.90;;;;;;5074356;28;19954;-75
2022/09/08 10:50:18;;;;;;;;;;;17.60;99.90;;;;;;5073585;28;19908;-75
2022/09/08 10:52:49;;;;;;;;;;;17.60;99.90;;;;;;5074223;28;19919;-76
2022/09/08 10:55:34;;;;;;;;;;;17.70;99.90;;;;;;5076040;28;20269;-75
2022/09/08 10:58:00;;;;;;;;;;;17.60;99.90;;;;;;5075758;28;19995;-74
2022/09/08 11:00:30;;;;;;;;;;;17.60;99.90;;;;;;5075250;28;19974;-75
2022/09/08 11:02:59;;;;;;;;;;;17.70;99.90;;;;;;5075301;28;19920;-75
2022/09/08 11:05:31;;;;;;;;;;;17.50;99.90;;;;;;5080617;28;19984;-75
2022/09/08 11:08:06;;;;;;;;;;;17.50;99.90;;;;;;5081092;28;19941;-74
2022/09/08 11:10:34;;;;;;;;;;;17.50;99.90;;;;;;5073984;28;19913;-74
2022/09/08 11:13:18;;;;;;;;;;;17.50;99.90;;;;;;5074923;28;19908;-74
2022/09/08 11:16:10;;;;;;;;;;;17.50;99.90;;;;;;5074758;28;19912;-74
2022/09/08 11:18:54;;;;;;;;;;;17.50;99.90;;;;;;5074764;28;19912;-74
2022/09/08 11:21:46;;;;;;;;;;;17.50;99.90;;;;;;5074908;28;20357;-75
2022/09/08 11:24:22;;;;;;;;;;;17.60;99.90;;;;;;5074706;28;19910;-74
2022/09/08 11:26:57;;;;;;;;;;;17.60;99.90;;;;;;5074517;28;19920;-74
2022/09/08 11:29:29;;;;;;;;;;;17.70;99.90;;;;;;5074833;28;19912;-75
2022/09/08 11:32:04;;;;;;;;;;;17.70;99.90;;;;;;5074314;28;19913;-74
2022/09/08 11:34:33;;;;;;;;;;;17.70;99.90;;;;;;5073776;28;19973;-75
2022/09/08 11:36:58;;;;;;;;;;;17.90;99.90;;;;;;5074187;28;19912;-75
2022/09/08 11:39:45;;;;;;;;;;;18.10;99.90;;;;;;5074291;28;20272;-75
2022/09/08 11:42:17;;;;;;;;;;;18.10;99.90;;;;;;5075255;28;19920;-75
2022/09/08 11:45:09;;;;;;;;;;;18.10;99.90;;;;;;5073917;28;19913;-75
2022/09/08 11:47:52;;;;;;;;;;;18.20;99.90;;;;;;5073753;28;19912;-74
2022/09/08 11:50:17;;;;;;;;;;;18.40;99.90;;;;;;5074403;28;19916;-74
2022/09/08 11:52:43;;;;;;;;;;;18.50;99.90;;;;;;5072506;28;19909;-74
2022/09/08 11:55:27;;;;;;;;;;;18.50;99.90;;;;;;5073480;28;19915;-74
2022/09/08 11:58:02;;;;;;;;;;;18.60;99.90;;;;;;5073777;28;19908;-74
2022/09/08 12:00:27;;;;;;;;;;;18.50;99.90;;;;;;5073840;28;20370;-74
2022/09/08 12:03:05;;;;;;;;;;;18.60;99.90;;;;;;5072431;28;19958;-75
2022/09/08 12:05:45;;;;;;;;;;;18.70;99.90;;;;;;5074433;28;20010;-74
2022/09/08 12:08:11;;;;;;;;;;;18.90;99.90;;;;;;5074652;28;20008;-75
2022/09/08 12:10:55;;;;;;;;;;;18.80;99.90;;;;;;5073980;28;19913;-75
2022/09/08 12:13:21;;;;;;;;;;;18.60;99.90;;;;;;5074270;28;19908;-75
2022/09/08 12:16:02;;;;;;;;;;;18.70;99.90;;;;;;5073325;28;20285;-75
2022/09/08 12:18:37;;;;;;;;;;;18.80;99.90;;;;;;5074039;28;19908;-75
2022/09/08 12:21:15;;;;;;;;;;;18.80;99.90;;;;;;5073553;28;19912;-74
2022/09/08 12:23:59;;;;;;;;;;;18.50;99.90;;;;;;5073267;28;19908;-75
2022/09/08 12:26:24;;;;;;;;;;;18.30;99.90;;;;;;5073745;28;19916;-75
2022/09/08 12:29:08;;;;;;;;;;;18.00;99.90;;;;;;5073104;28;19909;-75
2022/09/08 12:31:52;;;;;;;;;;;17.80;99.90;;;;;;5073698;28;19909;-74
2022/09/08 12:34:26;;;;;;;;;;;17.80;99.90;;;;;;5073307;28;19909;-75
2022/09/08 12:36:58;;;;;;;;;;;17.80;99.90;;;;;;5072927;28;19909;-74
2022/09/08 12:39:43;;;;;;;;;;;17.60;99.90;;;;;;5073259;28;19915;-74
2022/09/08 12:42:15;;;;;;;;;;;17.70;99.90;;;;;;5072653;28;19924;-74
2022/09/08 12:44:49;;;;;;;;;;;17.70;99.90;;;;;;5072529;28;19924;-75
2022/09/08 12:47:35;;;;;;;;;;;17.70;99.90;;;;;;5078849;28;21115;-74
2022/09/08 12:50:10;;;;;;;;;;;17.70;99.90;;;;;;5081618;28;19919;-72
2022/09/08 12:52:38;;;;;;;;;;;17.70;99.90;;;;;;5080848;28;20388;-75
2022/09/08 12:55:04;;;;;;;;;;;17.70;99.90;;;;;;5092875;28;19908;-74
2022/09/08 12:57:56;;;;;;;;;;;17.80;99.90;;;;;;5093263;28;19908;-74
2022/09/08 13:00:26;;;;;;;;;;;17.90;99.90;;;;;;5090859;28;19912;-74
2022/09/08 13:03:01;;;;;;;;;;;18.00;99.90;;;;;;5092673;28;19908;-75
2022/09/08 13:05:27;;;;;;;;;;;17.90;99.90;;;;;;5086612;28;19920;-75
2022/09/08 13:07:54;;;;;;;;;;;17.80;99.90;;;;;;5083148;28;19999;-76
2022/09/08 13:10:28;;;;;;;;;;;17.70;99.90;;;;;;5080496;28;19915;-75
2022/09/08 13:12:53;;;;;;;;;;;17.70;99.90;;;;;;5072456;28;19908;-76
2022/09/08 13:15:22;;;;;;;;;;;17.80;99.90;;;;;;5071716;28;20011;-75
2022/09/08 13:17:47;;;;;;;;;;;17.80;99.90;;;;;;5072468;28;19991;-75
2022/09/08 13:20:16;;;;;;;;;;;17.90;99.90;;;;;;5073076;28;20015;-75
2022/09/08 13:23:00;;;;;;;;;;;18.00;99.90;;;;;;5071447;28;19908;-76
2022/09/08 13:25:29;;;;;;;;;;;18.00;99.90;;;;;;5072967;28;20277;-75
2022/09/08 13:28:04;;;;;;;;;;;17.90;99.90;;;;;;5072292;28;20424;-75
2022/09/08 13:30:36;;;;;;;;;;;17.70;99.90;;;;;;5071752;28;19962;-75
2022/09/08 13:33:17;;;;;;;;;;;17.50;99.90;;;;;;5072633;28;20093;-74
2022/09/08 13:35:51;;;;;;;;;;;17.30;99.90;;;;;;5071412;28;19908;-75
2022/09/08 13:38:25;;;;;;;;;;;17.20;99.90;;;;;;5073022;28;19999;-74
2022/09/08 13:41:06;;;;;;;;;;;17.20;99.90;;;;;;5071781;28;19921;-77
2022/09/08 13:43:40;;;;;;;;;;;17.20;99.90;;;;;;5072327;28;19912;-76
2022/09/08 13:46:08;;;;;;;;;;;17.40;99.90;;;;;;5071872;28;19966;-75
2022/09/08 13:48:37;;;;;;;;;;;17.50;99.90;;;;;;5072279;28;20350;-75
2022/09/08 13:51:11;;;;;;;;;;;17.50;99.90;;;;;;5071769;28;20732;-74
2022/09/08 13:53:49;;;;;;;;;;;17.60;99.90;;;;;;5072641;28;20342;-75
2022/09/08 13:56:18;;;;;;;;;;;17.50;99.90;;;;;;5072377;28;19909;-75
2022/09/08 13:58:44;;;;;;;;;;;17.60;99.90;;;;;;5072205;28;19908;-75
2022/09/08 14:01:27;;;;;;;;;;;17.70;99.90;;;;;;5072384;28;19908;-75
2022/09/08 14:03:57;;;;;;;;;;;17.70;99.90;;;;;;5076383;28;20361;-75
2022/09/08 14:06:24;;;;;;;;;;;17.60;99.90;;;;;;5080797;28;20373;-75
2022/09/08 14:09:06;;;;;;;;;;;17.60;99.90;;;;;;5075058;28;19913;-75
2022/09/08 14:11:41;;;;;;;;;;;17.60;99.90;;;;;;5072373;28;19909;-75
2022/09/08 14:14:16;;;;;;;;;;;17.60;99.90;;;;;;5071656;28;19921;-74
2022/09/08 14:16:42;;;;;;;;;;;17.60;99.90;;;;;;5072372;28;19912;-75
2022/09/08 14:19:10;;;;;;;;;;;17.60;99.90;;;;;;5072010;28;19912;-74
2022/09/08 14:21:50;;;;;;;;;;;17.50;99.90;;;;;;5072623;28;20365;-74
2022/09/08 14:24:22;;;;;;;;;;;17.60;99.90;;;;;;5076186;28;20384;-74
2022/09/08 14:26:50;;;;;;;;;;;17.50;99.90;;;;;;5075480;28;19912;-74
2022/09/08 14:29:16;;;;;;;;;;;17.50;99.90;;;;;;5076083;28;19934;-74
2022/09/08 14:31:47;;;;;;;;;;;17.50;99.90;;;;;;5075895;28;20368;-75
2022/09/08 14:34:19;;;;;;;;;;;17.50;99.90;;;;;;5075833;28;20362;-74
2022/09/08 14:37:09;;;;;;;;;;;17.50;99.90;;;;;;5075611;28;20392;-74
2022/09/08 14:40:01;;;;;;;;;;;17.50;99.90;;;;;;5075860;28;19931;-74
2022/09/08 14:42:44;;;;;;;;;;;17.50;99.90;;;;;;5074126;28;19932;-74
2022/09/08 14:45:30;;;;;;;;;;;17.50;99.90;;;;;;5074760;28;20352;-74